Corning, Ohio
Current Conditions -  °F | °C
As of 4:53 AM on Friday 19 Dec 2014 (Local Time) from KZZV Reporting Station
Overcast Overcast  
Wind Chill: 23°   Ceiling: 1900
Heat Index: 28°   Visibility: 10mi
Dew Point: 21°   Wind: 5mph
Humidity: 75%   Direction: 260°W
Pressure: 30.2"   Gusts: NA
Location:  39.6°N, 82.09°W
Report Text: KZZV 190953Z AUTO 26004KT 10SM OVC019 M02/M06 A3020 RMK AO2 SLP236 T10221061
Loading
Personal Weather Stations






























Interactive Weather Map New forecast layout! Learn more

10-Day Weather Forecast

Advertisements
Track Severe Weather on mobile